McCaulley, Texas
Current Conditions -  °F | °C
As of 8:55 AM on Thursday 23 Oct 2014 (Local Time) from KSWW Reporting Station
Clear Clear  
Wind Chill: 62°   Ceiling: Unl
Heat Index: 62°   Visibility: 10mi
Dew Point: 57°   Wind: 9mph
Humidity: 83%   Direction: 200°SSW
Pressure: 30.17"   Gusts: NA
Location:  32.78°N, 100.21°W
Report Text: KSWW 231355Z AUTO 20008KT 10SM CLR 17/14 A3017 RMK AO2 T01690140
Loading
Personal Weather Stations






























Interactive Weather Map New forecast layout! Learn more

10-Day Weather Forecast

Advertisements
Track Severe Weather on mobile